KCFD/CFD METAR and TAF weather

Enter ICAO airport designator
Station Type Date Time Source
KCFD METAR 2020/01/23 21:15 UTC NOAA

KCFD 232115Z AUTO 34009KT 10SM BKN021 13/08 A3002 RMK AO2 T01340084


Station Type Date Time Source
KCFD Decoded METAR 2020/01/23 21:15 UTC NOAA

Station name not available
Jan 23, 2020 - 04:15 PM EST / 2020.01.23 2115 UTC
Wind: from the NNW (340 degrees) at 10 MPH (9 KT):0
Visibility: 10 mile(s):0
Sky conditions: mostly cloudy
Temperature: 56.1 F (13.4 C)
Dew Point: 47.1 F (8.4 C)
Relative Humidity: 71%
Pressure (altimeter): 30.02 in. Hg (1016 hPa)
ob: KCFD 232115Z AUTO 34009KT 10SM BKN021 13/08 A3002 RMK AO2 T01340084
cycle: 21

Station Type Date Time Source
KCFD TAF UTC NOAA

Error!

Example: see airport list